sensor_id;sensor_type;location;lat;lon;timestamp;temperature;humidity
31074;DHT22;17730;53.552;9.940;2023-02-27T00:00:24;0.30;99.90
31074;DHT22;17730;53.552;9.940;2023-02-27T00:02:50;0.40;99.90
31074;DHT22;17730;53.552;9.940;2023-02-27T00:05:19;0.40;99.90
31074;DHT22;17730;53.552;9.940;2023-02-27T00:07:47;0.40;99.90
31074;DHT22;17730;53.552;9.940;2023-02-27T00:10:12;0.40;99.90
31074;DHT22;17730;53.552;9.940;2023-02-27T00:12:38;0.30;99.90
31074;DHT22;17730;53.552;9.940;2023-02-27T00:15:08;0.30;99.90
31074;DHT22;17730;53.552;9.940;2023-02-27T00:17:34;0.30;99.90
31074;DHT22;17730;53.552;9.940;2023-02-27T00:19:59;0.30;99.90
31074;DHT22;17730;53.552;9.940;2023-02-27T00:22:25;0.40;99.90
31074;DHT22;17730;53.552;9.940;2023-02-27T00:24:51;0.40;99.90
31074;DHT22;17730;53.552;9.940;2023-02-27T00:27:16;0.30;99.90
31074;DHT22;17730;53.552;9.940;2023-02-27T00:29:42;0.20;99.90
31074;DHT22;17730;53.552;9.940;2023-02-27T00:32:07;0.20;99.90
31074;DHT22;17730;53.552;9.940;2023-02-27T00:34:33;0.20;99.90
31074;DHT22;17730;53.552;9.940;2023-02-27T00:36:58;0.30;99.90
31074;DHT22;17730;53.552;9.940;2023-02-27T00:39:24;0.30;99.90
31074;DHT22;17730;53.552;9.940;2023-02-27T00:41:49;0.30;99.90
31074;DHT22;17730;53.552;9.940;2023-02-27T00:44:15;0.30;99.90
31074;DHT22;17730;53.552;9.940;2023-02-27T00:46:40;0.40;99.90
31074;DHT22;17730;53.552;9.940;2023-02-27T00:49:06;0.40;99.90
31074;DHT22;17730;53.552;9.940;2023-02-27T00:51:31;0.40;99.90
31074;DHT22;17730;53.552;9.940;2023-02-27T00:53:58;0.30;99.90
31074;DHT22;17730;53.552;9.940;2023-02-27T00:56:23;0.20;99.90
31074;DHT22;17730;53.552;9.940;2023-02-27T00:58:49;0.30;99.90
31074;DHT22;17730;53.552;9.940;2023-02-27T01:01:14;0.20;99.90
31074;DHT22;17730;53.552;9.940;2023-02-27T01:03:40;0.20;99.90
31074;DHT22;17730;53.552;9.940;2023-02-27T01:06:05;0.20;99.90
31074;DHT22;17730;53.552;9.940;2023-02-27T01:08:31;0.20;99.90
31074;DHT22;17730;53.552;9.940;2023-02-27T01:10:56;0.20;99.90
31074;DHT22;17730;53.552;9.940;2023-02-27T01:13:22;0.20;99.90
31074;DHT22;17730;53.552;9.940;2023-02-27T01:15:48;0.10;99.90
31074;DHT22;17730;53.552;9.940;2023-02-27T01:18:13;0.30;99.90
31074;DHT22;17730;53.552;9.940;2023-02-27T01:20:39;0.30;99.90
31074;DHT22;17730;53.552;9.940;2023-02-27T01:23:04;0.30;99.90
31074;DHT22;17730;53.552;9.940;2023-02-27T01:25:30;0.30;99.90
31074;DHT22;17730;53.552;9.940;2023-02-27T01:27:55;0.30;99.90
31074;DHT22;17730;53.552;9.940;2023-02-27T01:30:21;0.40;99.90
31074;DHT22;17730;53.552;9.940;2023-02-27T01:32:46;0.40;99.90
31074;DHT22;17730;53.552;9.940;2023-02-27T01:35:12;0.40;99.90
31074;DHT22;17730;53.552;9.940;2023-02-27T01:37:37;0.40;99.90
31074;DHT22;17730;53.552;9.940;2023-02-27T01:40:03;0.40;99.90
31074;DHT22;17730;53.552;9.940;2023-02-27T01:42:29;0.40;99.90
31074;DHT22;17730;53.552;9.940;2023-02-27T01:45:05;0.40;99.90
31074;DHT22;17730;53.552;9.940;2023-02-27T01:47:34;0.40;99.90
31074;DHT22;17730;53.552;9.940;2023-02-27T01:50:00;0.40;99.90
31074;DHT22;17730;53.552;9.940;2023-02-27T01:52:25;0.40;99.90
31074;DHT22;17730;53.552;9.940;2023-02-27T01:54:51;0.40;99.90
31074;DHT22;17730;53.552;9.940;2023-02-27T01:57:17;0.40;99.90
31074;DHT22;17730;53.552;9.940;2023-02-27T01:59:42;0.40;99.90
31074;DHT22;17730;53.552;9.940;2023-02-27T02:02:10;0.40;99.90
31074;DHT22;17730;53.552;9.940;2023-02-27T02:04:37;0.30;99.90
31074;DHT22;17730;53.552;9.940;2023-02-27T02:07:04;0.30;99.90
31074;DHT22;17730;53.552;9.940;2023-02-27T02:09:32;0.30;99.90
31074;DHT22;17730;53.552;9.940;2023-02-27T02:11:58;0.30;99.90
31074;DHT22;17730;53.552;9.940;2023-02-27T02:14:24;0.20;99.90
31074;DHT22;17730;53.552;9.940;2023-02-27T02:27:15;0.20;99.90
31074;DHT22;17730;53.552;9.940;2023-02-27T02:30:09;0.10;99.90
31074;DHT22;17730;53.552;9.940;2023-02-27T02:40:33;-0.10;99.90
31074;DHT22;17730;53.552;9.940;2023-02-27T02:47:59;-0.10;99.90
31074;DHT22;17730;53.552;9.940;2023-02-27T02:53:23;-0.10;99.90
31074;DHT22;17730;53.552;9.940;2023-02-27T02:55:52;-0.10;99.90
31074;DHT22;17730;53.552;9.940;2023-02-27T02:58:28;-0.10;99.90
31074;DHT22;17730;53.552;9.940;2023-02-27T03:03:27;-0.10;99.90
31074;DHT22;17730;53.552;9.940;2023-02-27T03:05:56;-0.10;99.90
31074;DHT22;17730;53.552;9.940;2023-02-27T03:08:25;-0.10;99.90
31074;DHT22;17730;53.552;9.940;2023-02-27T03:10:54;-0.10;99.90
31074;DHT22;17730;53.552;9.940;2023-02-27T03:16:16;-0.10;99.90
31074;DHT22;17730;53.552;9.940;2023-02-27T03:18:50;-0.10;99.90
31074;DHT22;17730;53.552;9.940;2023-02-27T03:21:40;-0.20;99.90
31074;DHT22;17730;53.552;9.940;2023-02-27T03:24:03;-0.20;99.90
31074;DHT22;17730;53.552;9.940;2023-02-27T03:26:37;-0.20;99.90
31074;DHT22;17730;53.552;9.940;2023-02-27T03:29:11;-0.20;99.90
31074;DHT22;17730;53.552;9.940;2023-02-27T03:31:40;-0.20;99.90
31074;DHT22;17730;53.552;9.940;2023-02-27T03:34:16;-0.20;99.90
31074;DHT22;17730;53.552;9.940;2023-02-27T03:36:45;-0.20;99.90
31074;DHT22;17730;53.552;9.940;2023-02-27T03:44:31;-0.30;99.90
31074;DHT22;17730;53.552;9.940;2023-02-27T03:46:58;-0.40;99.90
31074;DHT22;17730;53.552;9.940;2023-02-27T03:49:24;-0.30;99.90
31074;DHT22;17730;53.552;9.940;2023-02-27T03:51:49;-0.40;99.90
31074;DHT22;17730;53.552;9.940;2023-02-27T03:54:19;-0.40;99.90
31074;DHT22;17730;53.552;9.940;2023-02-27T03:56:49;-0.40;99.90
31074;DHT22;17730;53.552;9.940;2023-02-27T03:59:15;-0.40;99.90
31074;DHT22;17730;53.552;9.940;2023-02-27T04:01:41;-0.40;99.90
31074;DHT22;17730;53.552;9.940;2023-02-27T04:04:11;-0.40;99.90
31074;DHT22;17730;53.552;9.940;2023-02-27T04:06:37;-0.50;99.90
31074;DHT22;17730;53.552;9.940;2023-02-27T04:09:40;-0.50;99.90
31074;DHT22;17730;53.552;9.940;2023-02-27T04:14:51;-0.40;99.90
31074;DHT22;17730;53.552;9.940;2023-02-27T04:25:04;-0.50;99.90
31074;DHT22;17730;53.552;9.940;2023-02-27T04:27:38;-0.50;99.90
31074;DHT22;17730;53.552;9.940;2023-02-27T04:37:55;-0.60;99.90
31074;DHT22;17730;53.552;9.940;2023-02-27T04:40:26;-0.60;99.90
31074;DHT22;17730;53.552;9.940;2023-02-27T04:42:53;-0.50;99.90
31074;DHT22;17730;53.552;9.940;2023-02-27T04:45:20;-0.50;99.90
31074;DHT22;17730;53.552;9.940;2023-02-27T04:47:48;-0.50;99.90
31074;DHT22;17730;53.552;9.940;2023-02-27T04:50:20;-0.50;99.90
31074;DHT22;17730;53.552;9.940;2023-02-27T04:52:57;-0.60;99.90
31074;DHT22;17730;53.552;9.940;2023-02-27T04:55:26;-0.60;99.90
31074;DHT22;17730;53.552;9.940;2023-02-27T04:58:03;-0.60;99.90
31074;DHT22;17730;53.552;9.940;2023-02-27T05:00:30;-0.60;99.90
31074;DHT22;17730;53.552;9.940;2023-02-27T05:02:59;-0.60;99.90
31074;DHT22;17730;53.552;9.940;2023-02-27T05:05:26;-0.60;99.90
31074;DHT22;17730;53.552;9.940;2023-02-27T05:07:55;-0.60;99.90
31074;DHT22;17730;53.552;9.940;2023-02-27T05:10:27;-0.60;99.90
31074;DHT22;17730;53.552;9.940;2023-02-27T05:13:12;-0.60;99.90
31074;DHT22;17730;53.552;9.940;2023-02-27T05:15:41;-0.60;99.90
31074;DHT22;17730;53.552;9.940;2023-02-27T05:18:09;-0.60;99.90
31074;DHT22;17730;53.552;9.940;2023-02-27T05:23:04;-0.60;99.90
31074;DHT22;17730;53.552;9.940;2023-02-27T05:28:17;-0.60;99.90
31074;DHT22;17730;53.552;9.940;2023-02-27T05:35:46;-0.60;99.90
31074;DHT22;17730;53.552;9.940;2023-02-27T05:38:19;-0.50;99.90
31074;DHT22;17730;53.552;9.940;2023-02-27T05:40:46;-0.50;99.90
31074;DHT22;17730;53.552;9.940;2023-02-27T05:43:18;-0.50;99.90
31074;DHT22;17730;53.552;9.940;2023-02-27T05:45:45;-0.60;99.90
31074;DHT22;17730;53.552;9.940;2023-02-27T05:48:23;-0.50;99.90
31074;DHT22;17730;53.552;9.940;2023-02-27T05:50:50;-0.50;99.90
31074;DHT22;17730;53.552;9.940;2023-02-27T05:53:17;-0.50;99.90
31074;DHT22;17730;53.552;9.940;2023-02-27T05:55:45;-0.60;99.90
31074;DHT22;17730;53.552;9.940;2023-02-27T05:58:17;-0.50;99.90
31074;DHT22;17730;53.552;9.940;2023-02-27T06:00:47;-0.60;99.90
31074;DHT22;17730;53.552;9.940;2023-02-27T06:03:13;-0.50;99.90
31074;DHT22;17730;53.552;9.940;2023-02-27T06:05:40;-0.50;99.90
31074;DHT22;17730;53.552;9.940;2023-02-27T06:08:06;-0.50;99.90
31074;DHT22;17730;53.552;9.940;2023-02-27T06:10:31;-0.50;99.90
31074;DHT22;17730;53.552;9.940;2023-02-27T06:12:57;-0.50;99.90
31074;DHT22;17730;53.552;9.940;2023-02-27T06:15:22;-0.50;99.90
31074;DHT22;17730;53.552;9.940;2023-02-27T06:17:48;-0.50;99.90
31074;DHT22;17730;53.552;9.940;2023-02-27T06:20:13;-0.50;99.90
31074;DHT22;17730;53.552;9.940;2023-02-27T06:22:39;-0.50;99.90
31074;DHT22;17730;53.552;9.940;2023-02-27T06:25:04;-0.50;99.90
31074;DHT22;17730;53.552;9.940;2023-02-27T06:27:30;-0.60;99.90
31074;DHT22;17730;53.552;9.940;2023-02-27T06:29:55;-0.50;99.90
31074;DHT22;17730;53.552;9.940;2023-02-27T06:32:22;-0.50;99.90
31074;DHT22;17730;53.552;9.940;2023-02-27T06:34:50;-0.50;99.90
31074;DHT22;17730;53.552;9.940;2023-02-27T06:37:15;-0.50;99.90
31074;DHT22;17730;53.552;9.940;2023-02-27T06:39:41;-0.50;99.90
31074;DHT22;17730;53.552;9.940;2023-02-27T06:42:06;-0.40;99.90
31074;DHT22;17730;53.552;9.940;2023-02-27T06:44:31;-0.40;99.90
31074;DHT22;17730;53.552;9.940;2023-02-27T06:46:57;-0.40;99.90
31074;DHT22;17730;53.552;9.940;2023-02-27T06:49:22;-0.40;99.90
31074;DHT22;17730;53.552;9.940;2023-02-27T06:51:48;-0.30;99.90
31074;DHT22;17730;53.552;9.940;2023-02-27T06:54:13;-0.30;99.90
31074;DHT22;17730;53.552;9.940;2023-02-27T06:56:39;-0.30;99.90
31074;DHT22;17730;53.552;9.940;2023-02-27T06:59:04;-0.20;99.90
31074;DHT22;17730;53.552;9.940;2023-02-27T07:01:30;-0.20;99.90
31074;DHT22;17730;53.552;9.940;2023-02-27T07:03:55;-0.20;99.90
31074;DHT22;17730;53.552;9.940;2023-02-27T07:06:21;-0.20;99.90
31074;DHT22;17730;53.552;9.940;2023-02-27T07:08:46;-0.10;99.90
31074;DHT22;17730;53.552;9.940;2023-02-27T07:11:12;0.00;99.90
31074;DHT22;17730;53.552;9.940;2023-02-27T07:13:37;0.10;99.90
31074;DHT22;17730;53.552;9.940;2023-02-27T07:16:03;0.10;99.90
31074;DHT22;17730;53.552;9.940;2023-02-27T07:18:28;0.20;99.90
31074;DHT22;17730;53.552;9.940;2023-02-27T07:20:54;0.30;99.90
31074;DHT22;17730;53.552;9.940;2023-02-27T07:23:20;0.40;99.90
31074;DHT22;17730;53.552;9.940;2023-02-27T07:25:46;0.40;99.90
31074;DHT22;17730;53.552;9.940;2023-02-27T07:28:12;0.50;99.90
31074;DHT22;17730;53.552;9.940;2023-02-27T07:30:38;0.60;99.90
31074;DHT22;17730;53.552;9.940;2023-02-27T07:33:03;0.70;99.90
31074;DHT22;17730;53.552;9.940;2023-02-27T07:35:30;0.80;99.90
31074;DHT22;17730;53.552;9.940;2023-02-27T07:37:55;0.90;99.90
31074;DHT22;17730;53.552;9.940;2023-02-27T07:40:21;1.00;99.90
31074;DHT22;17730;53.552;9.940;2023-02-27T07:42:46;1.10;99.90
31074;DHT22;17730;53.552;9.940;2023-02-27T07:45:12;1.20;99.90
31074;DHT22;17730;53.552;9.940;2023-02-27T07:47:38;1.30;99.90
31074;DHT22;17730;53.552;9.940;2023-02-27T07:50:04;1.40;99.90
31074;DHT22;17730;53.552;9.940;2023-02-27T07:52:29;1.60;99.90
31074;DHT22;17730;53.552;9.940;2023-02-27T07:54:55;1.60;99.90
31074;DHT22;17730;53.552;9.940;2023-02-27T07:57:20;1.70;99.90
31074;DHT22;17730;53.552;9.940;2023-02-27T07:59:46;1.80;99.90
31074;DHT22;17730;53.552;9.940;2023-02-27T08:02:12;1.90;99.90
31074;DHT22;17730;53.552;9.940;2023-02-27T08:04:38;2.00;99.90
31074;DHT22;17730;53.552;9.940;2023-02-27T08:07:03;2.10;99.90
31074;DHT22;17730;53.552;9.940;2023-02-27T08:09:29;2.30;99.90
31074;DHT22;17730;53.552;9.940;2023-02-27T08:11:55;2.30;99.90
31074;DHT22;17730;53.552;9.940;2023-02-27T08:14:21;2.30;99.90
31074;DHT22;17730;53.552;9.940;2023-02-27T08:16:47;2.40;99.90
31074;DHT22;17730;53.552;9.940;2023-02-27T08:19:14;2.60;99.90
31074;DHT22;17730;53.552;9.940;2023-02-27T08:21:39;2.80;99.90
31074;DHT22;17730;53.552;9.940;2023-02-27T08:24:19;2.90;99.90
31074;DHT22;17730;53.552;9.940;2023-02-27T08:26:54;3.00;99.90
31074;DHT22;17730;53.552;9.940;2023-02-27T08:29:20;3.20;99.90
31074;DHT22;17730;53.552;9.940;2023-02-27T08:31:45;3.20;99.90
31074;DHT22;17730;53.552;9.940;2023-02-27T08:34:13;3.40;99.90
31074;DHT22;17730;53.552;9.940;2023-02-27T08:36:39;3.40;99.90
31074;DHT22;17730;53.552;9.940;2023-02-27T08:39:06;3.50;99.90
31074;DHT22;17730;53.552;9.940;2023-02-27T08:41:31;3.60;99.90
31074;DHT22;17730;53.552;9.940;2023-02-27T08:43:57;3.80;99.90
31074;DHT22;17730;53.552;9.940;2023-02-27T08:46:23;4.00;99.90
31074;DHT22;17730;53.552;9.940;2023-02-27T08:48:48;4.10;99.90
31074;DHT22;17730;53.552;9.940;2023-02-27T08:51:14;4.20;99.90
31074;DHT22;17730;53.552;9.940;2023-02-27T08:53:39;4.40;99.90
31074;DHT22;17730;53.552;9.940;2023-02-27T08:56:05;4.40;99.90
31074;DHT22;17730;53.552;9.940;2023-02-27T08:58:31;4.40;99.90
31074;DHT22;17730;53.552;9.940;2023-02-27T09:00:56;4.50;99.90
31074;DHT22;17730;53.552;9.940;2023-02-27T09:03:22;4.60;99.90
31074;DHT22;17730;53.552;9.940;2023-02-27T09:05:52;4.70;99.90
31074;DHT22;17730;53.552;9.940;2023-02-27T09:08:18;4.80;99.90
31074;DHT22;17730;53.552;9.940;2023-02-27T09:10:43;5.00;99.90
31074;DHT22;17730;53.552;9.940;2023-02-27T09:13:09;5.10;99.90
31074;DHT22;17730;53.552;9.940;2023-02-27T09:15:35;5.10;99.90
31074;DHT22;17730;53.552;9.940;2023-02-27T09:18:02;5.10;99.90
31074;DHT22;17730;53.552;9.940;2023-02-27T09:20:30;5.10;99.90
31074;DHT22;17730;53.552;9.940;2023-02-27T09:22:56;5.20;99.90
31074;DHT22;17730;53.552;9.940;2023-02-27T09:25:23;5.10;99.90
31074;DHT22;17730;53.552;9.940;2023-02-27T09:27:49;5.10;99.90
31074;DHT22;17730;53.552;9.940;2023-02-27T09:30:14;5.20;99.90
31074;DHT22;17730;53.552;9.940;2023-02-27T09:32:40;5.20;99.90
31074;DHT22;17730;53.552;9.940;2023-02-27T09:35:06;5.10;99.90
31074;DHT22;17730;53.552;9.940;2023-02-27T09:37:31;5.10;99.90
31074;DHT22;17730;53.552;9.940;2023-02-27T09:39:57;5.30;99.90
31074;DHT22;17730;53.552;9.940;2023-02-27T09:42:24;5.20;99.90
31074;DHT22;17730;53.552;9.940;2023-02-27T09:45:24;5.30;99.90
31074;DHT22;17730;53.552;9.940;2023-02-27T09:47:46;5.40;99.20
31074;DHT22;17730;53.552;9.940;2023-02-27T09:50:25;5.40;99.20
31074;DHT22;17730;53.552;9.940;2023-02-27T09:52:53;5.50;98.90
31074;DHT22;17730;53.552;9.940;2023-02-27T09:55:19;5.60;98.30
31074;DHT22;17730;53.552;9.940;2023-02-27T09:57:48;5.70;96.90
31074;DHT22;17730;53.552;9.940;2023-02-27T10:00:23;5.60;94.80
31074;DHT22;17730;53.552;9.940;2023-02-27T10:05:21;5.70;94.80
31074;DHT22;17730;53.552;9.940;2023-02-27T10:07:58;5.70;95.10
31074;DHT22;17730;53.552;9.940;2023-02-27T10:16:05;6.10;93.40
31074;DHT22;17730;53.552;9.940;2023-02-27T10:18:32;6.20;93.50
31074;DHT22;17730;53.552;9.940;2023-02-27T10:21:00;6.40;91.70
31074;DHT22;17730;53.552;9.940;2023-02-27T10:23:40;6.60;90.70
31074;DHT22;17730;53.552;9.940;2023-02-27T10:26:17;7.10;88.30
31074;DHT22;17730;53.552;9.940;2023-02-27T10:28:43;7.40;84.50
31074;DHT22;17730;53.552;9.940;2023-02-27T10:31:10;7.40;83.60
31074;DHT22;17730;53.552;9.940;2023-02-27T10:33:40;7.30;81.60
31074;DHT22;17730;53.552;9.940;2023-02-27T10:36:06;7.30;80.70
31074;DHT22;17730;53.552;9.940;2023-02-27T10:38:42;7.50;81.30
31074;DHT22;17730;53.552;9.940;2023-02-27T10:41:09;7.30;77.90
31074;DHT22;17730;53.552;9.940;2023-02-27T10:43:35;7.10;79.10
31074;DHT22;17730;53.552;9.940;2023-02-27T10:46:01;7.20;78.80
31074;DHT22;17730;53.552;9.940;2023-02-27T10:48:27;7.30;82.20
31074;DHT22;17730;53.552;9.940;2023-02-27T10:50:53;7.40;78.20
31074;DHT22;17730;53.552;9.940;2023-02-27T10:53:38;7.30;80.10
31074;DHT22;17730;53.552;9.940;2023-02-27T10:56:05;7.30;82.80
31074;DHT22;17730;53.552;9.940;2023-02-27T10:58:33;7.60;80.70
31074;DHT22;17730;53.552;9.940;2023-02-27T11:00:59;7.70;78.60
31074;DHT22;17730;53.552;9.940;2023-02-27T11:03:26;7.80;79.10
31074;DHT22;17730;53.552;9.940;2023-02-27T11:05:54;7.70;76.60
31074;DHT22;17730;53.552;9.940;2023-02-27T11:08:22;7.60;76.60
31074;DHT22;17730;53.552;9.940;2023-02-27T11:10:54;7.60;77.90
31074;DHT22;17730;53.552;9.940;2023-02-27T11:13:20;7.70;78.40
31074;DHT22;17730;53.552;9.940;2023-02-27T11:15:59;7.80;76.80
31074;DHT22;17730;53.552;9.940;2023-02-27T11:18:26;7.60;77.20
31074;DHT22;17730;53.552;9.940;2023-02-27T11:20:54;7.60;78.50
31074;DHT22;17730;53.552;9.940;2023-02-27T11:23:32;7.70;77.90
31074;DHT22;17730;53.552;9.940;2023-02-27T11:26:09;7.70;76.70
31074;DHT22;17730;53.552;9.940;2023-02-27T11:28:35;7.70;76.90
31074;DHT22;17730;53.552;9.940;2023-02-27T11:31:06;7.70;76.80
31074;DHT22;17730;53.552;9.940;2023-02-27T11:33:34;8.00;76.70
31074;DHT22;17730;53.552;9.940;2023-02-27T11:36:00;8.30;76.00
31074;DHT22;17730;53.552;9.940;2023-02-27T11:38:31;7.90;76.40
31074;DHT22;17730;53.552;9.940;2023-02-27T11:40:59;7.40;79.30
31074;DHT22;17730;53.552;9.940;2023-02-27T11:43:27;7.40;79.30
31074;DHT22;17730;53.552;9.940;2023-02-27T11:45:58;7.60;80.00
31074;DHT22;17730;53.552;9.940;2023-02-27T11:48:26;7.80;78.90
31074;DHT22;17730;53.552;9.940;2023-02-27T11:55:55;7.70;80.50
31074;DHT22;17730;53.552;9.940;2023-02-27T11:58:24;7.60;78.00
31074;DHT22;17730;53.552;9.940;2023-02-27T12:01:02;7.80;79.10
31074;DHT22;17730;53.552;9.940;2023-02-27T12:03:46;7.80;79.00
31074;DHT22;17730;53.552;9.940;2023-02-27T12:06:22;8.10;77.80
31074;DHT22;17730;53.552;9.940;2023-02-27T12:08:51;8.20;77.80
31074;DHT22;17730;53.552;9.940;2023-02-27T12:11:35;8.30;78.30
31074;DHT22;17730;53.552;9.940;2023-02-27T12:16:35;8.70;77.70
31074;DHT22;17730;53.552;9.940;2023-02-27T12:19:45;8.80;74.10
31074;DHT22;17730;53.552;9.940;2023-02-27T12:22:36;8.60;72.70
31074;DHT22;17730;53.552;9.940;2023-02-27T12:24:46;8.90;72.80
31074;DHT22;17730;53.552;9.940;2023-02-27T12:27:19;9.00;70.60
31074;DHT22;17730;53.552;9.940;2023-02-27T12:29:58;9.10;70.80
31074;DHT22;17730;53.552;9.940;2023-02-27T12:32:31;8.90;70.80
31074;DHT22;17730;53.552;9.940;2023-02-27T12:35:11;8.70;72.80
31074;DHT22;17730;53.552;9.940;2023-02-27T12:37:38;8.60;74.50
31074;DHT22;17730;53.552;9.940;2023-02-27T12:40:04;8.80;75.10
31074;DHT22;17730;53.552;9.940;2023-02-27T12:45:08;9.10;75.00
31074;DHT22;17730;53.552;9.940;2023-02-27T12:47:45;9.30;73.20
31074;DHT22;17730;53.552;9.940;2023-02-27T12:50:18;8.80;65.60
31074;DHT22;17730;53.552;9.940;2023-02-27T12:52:48;8.50;72.10
31074;DHT22;17730;53.552;9.940;2023-02-27T13:00:11;7.80;76.10
31074;DHT22;17730;53.552;9.940;2023-02-27T13:05:29;8.00;79.30
31074;DHT22;17730;53.552;9.940;2023-02-27T13:10:48;8.30;79.70
31074;DHT22;17730;53.552;9.940;2023-02-27T13:13:20;8.40;78.90
31074;DHT22;17730;53.552;9.940;2023-02-27T13:19:03;8.60;69.60
31074;DHT22;17730;53.552;9.940;2023-02-27T13:21:11;8.80;68.60
31074;DHT22;17730;53.552;9.940;2023-02-27T13:24:01;8.80;69.50
31074;DHT22;17730;53.552;9.940;2023-02-27T13:26:29;8.40;70.90
31074;DHT22;17730;53.552;9.940;2023-02-27T13:28:55;8.10;71.90
31074;DHT22;17730;53.552;9.940;2023-02-27T13:31:25;8.00;71.50
31074;DHT22;17730;53.552;9.940;2023-02-27T13:33:58;7.90;70.50
31074;DHT22;17730;53.552;9.940;2023-02-27T13:36:26;8.00;72.30
31074;DHT22;17730;53.552;9.940;2023-02-27T13:38:54;8.10;71.80
31074;DHT22;17730;53.552;9.940;2023-02-27T13:43:46;8.50;69.90
31074;DHT22;17730;53.552;9.940;2023-02-27T13:46:33;8.60;67.80
31074;DHT22;17730;53.552;9.940;2023-02-27T13:56:38;8.10;65.60
31074;DHT22;17730;53.552;9.940;2023-02-27T13:59:11;8.30;63.40
31074;DHT22;17730;53.552;9.940;2023-02-27T14:01:37;8.30;62.90
31074;DHT22;17730;53.552;9.940;2023-02-27T14:04:03;8.30;62.70
31074;DHT22;17730;53.552;9.940;2023-02-27T14:06:30;8.30;62.10
31074;DHT22;17730;53.552;9.940;2023-02-27T14:08:56;8.30;62.80
31074;DHT22;17730;53.552;9.940;2023-02-27T14:11:24;8.30;61.90
31074;DHT22;17730;53.552;9.940;2023-02-27T14:24:13;7.90;63.50
31074;DHT22;17730;53.552;9.940;2023-02-27T14:26:40;8.10;62.80
31074;DHT22;17730;53.552;9.940;2023-02-27T14:29:11;8.00;61.00
31074;DHT22;17730;53.552;9.940;2023-02-27T14:31:38;8.00;61.40
31074;DHT22;17730;53.552;9.940;2023-02-27T14:34:04;8.10;61.90
31074;DHT22;17730;53.552;9.940;2023-02-27T14:36:31;7.90;62.40
31074;DHT22;17730;53.552;9.940;2023-02-27T14:38:59;7.80;63.00
31074;DHT22;17730;53.552;9.940;2023-02-27T14:41:28;7.80;63.50
31074;DHT22;17730;53.552;9.940;2023-02-27T14:43:58;7.80;63.30
31074;DHT22;17730;53.552;9.940;2023-02-27T14:48:59;7.80;62.80
31074;DHT22;17730;53.552;9.940;2023-02-27T14:51:28;7.70;62.40
31074;DHT22;17730;53.552;9.940;2023-02-27T14:54:37;7.70;63.60
31074;DHT22;17730;53.552;9.940;2023-02-27T14:56:56;7.50;63.60
31074;DHT22;17730;53.552;9.940;2023-02-27T15:01:48;7.50;64.30
31074;DHT22;17730;53.552;9.940;2023-02-27T15:04:15;7.50;66.30
31074;DHT22;17730;53.552;9.940;2023-02-27T15:06:42;7.40;67.60
31074;DHT22;17730;53.552;9.940;2023-02-27T15:09:15;7.40;67.30
31074;DHT22;17730;53.552;9.940;2023-02-27T15:11:42;7.30;68.00
31074;DHT22;17730;53.552;9.940;2023-02-27T15:14:14;7.20;68.20
31074;DHT22;17730;53.552;9.940;2023-02-27T15:16:42;7.20;69.10
31074;DHT22;17730;53.552;9.940;2023-02-27T15:19:13;7.20;69.30
31074;DHT22;17730;53.552;9.940;2023-02-27T15:21:41;7.30;69.20
31074;DHT22;17730;53.552;9.940;2023-02-27T15:24:07;7.30;69.40
31074;DHT22;17730;53.552;9.940;2023-02-27T15:26:42;7.30;69.80
31074;DHT22;17730;53.552;9.940;2023-02-27T15:29:13;7.20;71.20
31074;DHT22;17730;53.552;9.940;2023-02-27T15:31:41;7.10;72.50
31074;DHT22;17730;53.552;9.940;2023-02-27T15:34:09;7.10;73.40
31074;DHT22;17730;53.552;9.940;2023-02-27T15:36:35;7.00;75.80
31074;DHT22;17730;53.552;9.940;2023-02-27T15:41:40;7.00;76.40
31074;DHT22;17730;53.552;9.940;2023-02-27T15:44:06;7.00;77.30
31074;DHT22;17730;53.552;9.940;2023-02-27T15:46:32;7.00;79.70
31074;DHT22;17730;53.552;9.940;2023-02-27T15:48:57;7.00;81.40
31074;DHT22;17730;53.552;9.940;2023-02-27T15:51:26;6.90;81.80
31074;DHT22;17730;53.552;9.940;2023-02-27T15:53:53;6.80;82.40
31074;DHT22;17730;53.552;9.940;2023-02-27T15:56:20;6.70;83.20
31074;DHT22;17730;53.552;9.940;2023-02-27T15:58:49;6.70;85.10
31074;DHT22;17730;53.552;9.940;2023-02-27T16:01:19;6.60;86.60
31074;DHT22;17730;53.552;9.940;2023-02-27T16:03:46;6.60;88.10
31074;DHT22;17730;53.552;9.940;2023-02-27T16:08:43;6.60;90.20
31074;DHT22;17730;53.552;9.940;2023-02-27T16:11:17;6.50;90.60
31074;DHT22;17730;53.552;9.940;2023-02-27T16:13:43;6.50;90.80
31074;DHT22;17730;53.552;9.940;2023-02-27T16:18:55;6.40;92.10
31074;DHT22;17730;53.552;9.940;2023-02-27T16:21:22;6.30;93.10
31074;DHT22;17730;53.552;9.940;2023-02-27T16:23:47;6.20;94.30
31074;DHT22;17730;53.552;9.940;2023-02-27T16:31:05;6.10;96.80
31074;DHT22;17730;53.552;9.940;2023-02-27T16:33:36;6.00;97.50
31074;DHT22;17730;53.552;9.940;2023-02-27T16:36:04;6.00;98.20
31074;DHT22;17730;53.552;9.940;2023-02-27T16:38:35;5.90;99.10
31074;DHT22;17730;53.552;9.940;2023-02-27T16:41:00;5.80;99.80
31074;DHT22;17730;53.552;9.940;2023-02-27T16:43:26;5.70;99.90
31074;DHT22;17730;53.552;9.940;2023-02-27T16:45:51;5.60;99.90
31074;DHT22;17730;53.552;9.940;2023-02-27T16:48:17;5.50;99.90
31074;DHT22;17730;53.552;9.940;2023-02-27T16:50:42;5.50;99.90
31074;DHT22;17730;53.552;9.940;2023-02-27T16:53:08;5.40;99.90
31074;DHT22;17730;53.552;9.940;2023-02-27T16:55:33;5.40;99.90
31074;DHT22;17730;53.552;9.940;2023-02-27T16:58:03;5.40;99.90
31074;DHT22;17730;53.552;9.940;2023-02-27T17:00:28;5.40;99.90
31074;DHT22;17730;53.552;9.940;2023-02-27T17:02:54;5.40;99.90
31074;DHT22;17730;53.552;9.940;2023-02-27T17:05:19;5.40;99.90
31074;DHT22;17730;53.552;9.940;2023-02-27T17:07:45;5.40;99.90
31074;DHT22;17730;53.552;9.940;2023-02-27T17:10:14;5.40;99.90
31074;DHT22;17730;53.552;9.940;2023-02-27T17:12:40;5.40;99.90
31074;DHT22;17730;53.552;9.940;2023-02-27T17:15:08;5.30;99.90
31074;DHT22;17730;53.552;9.940;2023-02-27T17:17:33;5.40;99.90
31074;DHT22;17730;53.552;9.940;2023-02-27T17:19:59;5.40;99.90
31074;DHT22;17730;53.552;9.940;2023-02-27T17:22:24;5.40;99.90
31074;DHT22;17730;53.552;9.940;2023-02-27T17:24:49;5.40;99.90
31074;DHT22;17730;53.552;9.940;2023-02-27T17:27:15;5.40;99.90
31074;DHT22;17730;53.552;9.940;2023-02-27T17:29:40;5.50;99.90
31074;DHT22;17730;53.552;9.940;2023-02-27T17:32:06;5.50;99.90
31074;DHT22;17730;53.552;9.940;2023-02-27T17:34:31;5.50;99.90
31074;DHT22;17730;53.552;9.940;2023-02-27T17:36:57;5.50;99.90
31074;DHT22;17730;53.552;9.940;2023-02-27T17:39:22;5.50;99.90
31074;DHT22;17730;53.552;9.940;2023-02-27T17:41:48;5.50;99.90
31074;DHT22;17730;53.552;9.940;2023-02-27T17:44:17;5.50;99.90
31074;DHT22;17730;53.552;9.940;2023-02-27T17:46:42;5.50;99.90
31074;DHT22;17730;53.552;9.940;2023-02-27T17:49:07;5.60;99.90
31074;DHT22;17730;53.552;9.940;2023-02-27T17:51:33;5.60;99.90
31074;DHT22;17730;53.552;9.940;2023-02-27T17:53:59;5.60;99.90
31074;DHT22;17730;53.552;9.940;2023-02-27T17:56:25;5.60;99.90
31074;DHT22;17730;53.552;9.940;2023-02-27T17:58:50;5.50;99.90
31074;DHT22;17730;53.552;9.940;2023-02-27T18:01:17;5.50;99.90
31074;DHT22;17730;53.552;9.940;2023-02-27T18:03:44;5.50;99.90